createdAt,value
2022-07-31T00:00:23.543Z,97818.03
2022-07-31T00:02:51.243Z,97815.28
2022-07-31T00:05:18.416Z,97811.69
2022-07-31T00:07:45.553Z,97816.41
2022-07-31T00:10:12.885Z,97810.88
2022-07-31T00:12:40.106Z,97811.16
2022-07-31T00:15:08.237Z,97812.50
2022-07-31T00:17:35.539Z,97802.06
2022-07-31T00:20:02.766Z,97809.22
2022-07-31T00:22:30.163Z,97810.34
2022-07-31T00:24:57.457Z,97810.34
2022-07-31T00:27:24.652Z,97807.06
2022-07-31T00:29:52.062Z,97804.94
2022-07-31T00:32:19.298Z,97811.47
2022-07-31T00:34:46.476Z,97808.72
2022-07-31T00:37:13.647Z,97806.75
2022-07-31T00:39:40.786Z,97809.53
2022-07-31T00:42:20.487Z,97811.47
2022-07-31T00:44:47.842Z,97805.94
2022-07-31T00:47:15.915Z,97806.25
2022-07-31T00:49:43.863Z,97805.94
2022-07-31T00:52:10.949Z,97802.66
2022-07-31T00:54:38.364Z,97791.59
2022-07-31T00:57:05.721Z,97807.06
2022-07-31T00:59:33.024Z,97794.69
2022-07-31T01:02:00.220Z,97803.47
2022-07-31T01:04:27.437Z,97803.47
2022-07-31T01:06:54.924Z,97801.84
2022-07-31T01:09:22.307Z,97812.06
2022-07-31T01:12:04.431Z,97804.13
2022-07-31T01:14:36.180Z,97794.47
2022-07-31T01:17:03.614Z,97804.13
2022-07-31T01:19:44.080Z,97801.00
2022-07-31T01:22:33.361Z,97793.06
2022-07-31T01:25:12.984Z,97792.22
2022-07-31T01:27:49.233Z,97790.28
2022-07-31T01:30:17.128Z,97793.34
2022-07-31T01:32:46.940Z,97792.03
2022-07-31T01:35:21.505Z,97788.13
2022-07-31T01:37:55.978Z,97783.41
2022-07-31T01:40:35.877Z,97794.19
2022-07-31T01:43:07.835Z,97795.81
2022-07-31T01:45:35.662Z,97798.06
2022-07-31T01:48:02.798Z,97788.13
2022-07-31T01:50:42.216Z,97780.16
2022-07-31T01:53:12.783Z,97789.78
2022-07-31T01:56:03.832Z,97796.13
2022-07-31T01:58:28.678Z,97786.50
2022-07-31T02:00:58.624Z,97789.28
2022-07-31T02:03:44.141Z,97786.50
2022-07-31T02:06:16.599Z,97791.22
2022-07-31T02:08:46.822Z,97788.47
2022-07-31T02:11:15.043Z,97781.81
2022-07-31T02:13:42.252Z,97778.53
2022-07-31T02:16:09.287Z,97779.66
2022-07-31T02:18:37.330Z,97778.22
2022-07-31T02:21:04.324Z,97778.53
2022-07-31T02:23:31.490Z,97778.53
2022-07-31T02:25:58.554Z,97779.34
2022-07-31T02:28:25.639Z,97779.66
2022-07-31T02:30:52.652Z,97778.53
2022-07-31T02:33:21.645Z,97781.28
2022-07-31T02:35:49.512Z,97768.91
2022-07-31T02:38:22.636Z,97773.63
2022-07-31T02:41:02.035Z,97782.41
2022-07-31T02:43:29.241Z,97781.59
2022-07-31T02:45:56.428Z,97779.97
2022-07-31T02:48:24.415Z,97785.50
2022-07-31T02:50:51.483Z,97787.75
2022-07-31T02:53:18.457Z,97785.81
2022-07-31T02:55:45.713Z,97791.66
2022-07-31T02:58:13.261Z,97777.81
2022-07-31T03:00:40.321Z,97785.28
2022-07-31T03:03:07.426Z,97771.47
2022-07-31T03:05:34.465Z,97770.97
2022-07-31T03:08:01.428Z,97790.81
2022-07-31T03:10:28.575Z,97782.53
2022-07-31T03:12:55.612Z,97781.72
2022-07-31T03:15:26.085Z,97783.69
2022-07-31T03:17:53.611Z,97788.06
2022-07-31T03:20:20.604Z,97786.94
2022-07-31T03:22:47.768Z,97789.22
2022-07-31T03:25:21.890Z,97774.88
2022-07-31T03:27:52.467Z,97781.22
2022-07-31T03:30:26.451Z,97785.41
2022-07-31T03:32:54.175Z,97777.13
2022-07-31T03:35:21.319Z,97786.44
2022-07-31T03:37:48.425Z,97791.47
2022-07-31T03:40:15.548Z,97779.38
2022-07-31T03:42:42.675Z,97792.28
2022-07-31T03:45:10.345Z,97793.41
2022-07-31T03:47:37.430Z,97790.94
2022-07-31T03:50:04.738Z,97792.09
2022-07-31T03:52:31.780Z,97792.56
2022-07-31T03:54:58.830Z,97798.09
2022-07-31T03:57:27.617Z,97790.63
2022-07-31T03:59:58.627Z,97792.91
2022-07-31T04:02:27.690Z,97791.75
2022-07-31T04:04:55.051Z,97800.88
2022-07-31T04:07:22.268Z,97792.09
2022-07-31T04:09:49.517Z,97786.22
2022-07-31T04:12:16.646Z,97794.84
2022-07-31T04:14:44.521Z,97801.50
2022-07-31T04:17:11.603Z,97798.44
2022-07-31T04:19:39.573Z,97795.97
2022-07-31T04:22:07.319Z,97795.97
2022-07-31T04:24:34.726Z,97796.59
2022-07-31T04:27:01.809Z,97800.69
2022-07-31T04:29:29.898Z,97805.09
2022-07-31T04:31:57.239Z,97799.84
2022-07-31T04:34:24.335Z,97798.56
2022-07-31T04:36:51.477Z,97795.78
2022-07-31T04:39:18.669Z,97799.38
2022-07-31T04:41:45.830Z,97808.47
2022-07-31T04:44:12.940Z,97809.38
2022-07-31T04:46:39.942Z,97809.38
2022-07-31T04:49:07.069Z,97824.84
2022-07-31T04:51:34.156Z,97819.31
2022-07-31T04:54:01.416Z,97827.63
2022-07-31T04:56:34.709Z,97825.97
2022-07-31T04:59:03.394Z,97825.19
2022-07-31T05:01:31.073Z,97832.53
2022-07-31T05:03:58.675Z,97838.06
2022-07-31T05:06:44.964Z,97841.97
2022-07-31T05:09:18.467Z,97834.25
2022-07-31T05:11:47.050Z,97839.78
2022-07-31T05:14:14.716Z,97841.97
2022-07-31T05:16:41.766Z,97835.41
2022-07-31T05:19:13.717Z,97843.06
2022-07-31T05:21:53.208Z,97844.19
2022-07-31T05:24:32.592Z,97845.31
2022-07-31T05:27:02.408Z,97849.84
2022-07-31T05:29:29.825Z,97851.00
2022-07-31T05:31:59.566Z,97858.66
2022-07-31T05:34:27.221Z,97863.66
2022-07-31T05:36:56.949Z,97858.94
2022-07-31T05:39:25.508Z,97860.06
2022-07-31T05:41:53.027Z,97868.38
2022-07-31T05:44:19.989Z,97866.41
2022-07-31T05:46:47.165Z,97871.94
2022-07-31T05:49:14.447Z,97871.94
2022-07-31T05:51:45.742Z,97875.53
2022-07-31T05:54:13.013Z,97874.72
2022-07-31T05:56:40.194Z,97874.72
2022-07-31T05:59:07.233Z,97880.56
2022-07-31T06:01:34.536Z,97877.47
2022-07-31T06:04:02.803Z,97885.28
2022-07-31T06:06:29.809Z,97889.16
2022-07-31T06:09:02.029Z,97882.50
2022-07-31T06:11:31.638Z,97896.34
2022-07-31T06:13:58.726Z,97888.34
2022-07-31T06:16:25.779Z,97899.72
2022-07-31T06:18:52.812Z,97908.50
2022-07-31T06:23:45.635Z,97911.28
2022-07-31T06:26:12.797Z,97904.91
2022-07-31T06:28:47.918Z,97903.81
2022-07-31T06:31:19.825Z,97904.91
2022-07-31T06:33:48.483Z,97911.28
2022-07-31T06:36:16.723Z,97908.31
2022-07-31T06:38:43.695Z,97898.38
2022-07-31T06:41:10.889Z,97906.38
2022-07-31T06:43:37.927Z,97917.09
2022-07-31T06:46:07.308Z,97911.56
2022-07-31T06:48:34.372Z,97911.06
2022-07-31T06:51:29.240Z,97910.25
2022-07-31T06:53:48.520Z,97909.13
2022-07-31T06:56:15.710Z,97920.19
2022-07-31T06:58:42.744Z,97909.72
2022-07-31T07:01:09.815Z,97914.13
2022-07-31T07:03:36.866Z,97915.78
2022-07-31T07:06:04.318Z,97917.44
2022-07-31T07:08:31.440Z,97918.53
2022-07-31T07:10:58.472Z,97916.91
2022-07-31T07:13:45.090Z,97922.75
2022-07-31T07:16:14.456Z,97924.25
2022-07-31T07:18:41.502Z,97929.97
2022-07-31T07:21:08.515Z,97919.84
2022-07-31T07:23:36.005Z,97922.13
2022-07-31T07:26:03.471Z,97919.16
2022-07-31T07:28:31.526Z,97928.03
2022-07-31T07:30:58.773Z,97915.06
2022-07-31T07:33:41.240Z,97929.88
2022-07-31T07:36:23.193Z,97920.28
2022-07-31T07:38:54.879Z,97921.41
2022-07-31T07:41:23.623Z,97928.28
2022-07-31T07:43:52.394Z,97926.63
2022-07-31T07:46:21.357Z,97920.06
2022-07-31T07:48:49.860Z,97928.03
2022-07-31T07:51:17.325Z,97929.88
2022-07-31T07:53:45.704Z,97929.41
2022-07-31T07:56:13.432Z,97946.47
2022-07-31T07:58:41.066Z,97939.91
2022-07-31T08:01:08.338Z,97930.50
2022-07-31T08:03:48.461Z,97931.63
2022-07-31T08:06:19.834Z,97939.31
2022-07-31T08:08:46.919Z,97931.63
2022-07-31T08:11:17.440Z,97941.56
2022-07-31T08:13:50.017Z,97939.63
2022-07-31T08:16:17.490Z,97945.97
2022-07-31T08:18:44.561Z,97932.75
2022-07-31T08:21:11.645Z,97946.47
2022-07-31T08:23:38.726Z,97949.56
2022-07-31T08:26:08.765Z,97945.97
2022-07-31T08:28:36.382Z,97960.59
2022-07-31T08:31:03.654Z,97946.78
2022-07-31T08:33:30.720Z,97957.25
2022-07-31T08:35:57.775Z,97957.66
2022-07-31T08:38:24.926Z,97962.66
2022-07-31T08:40:52.166Z,97960.94
2022-07-31T08:44:02.772Z,97960.03
2022-07-31T08:46:08.371Z,97962.16
2022-07-31T08:48:35.382Z,97963.81
2022-07-31T08:51:04.014Z,97954.72
2022-07-31T08:53:33.318Z,97967.13
2022-07-31T08:56:01.281Z,97969.91
2022-07-31T08:58:28.577Z,97957.47
2022-07-31T09:00:55.937Z,97969.91
2022-07-31T09:03:23.649Z,97970.41
2022-07-31T09:05:50.737Z,97969.34
2022-07-31T09:08:17.961Z,97969.09
2022-07-31T09:10:49.607Z,97970.16
2022-07-31T09:13:18.392Z,97969.34
2022-07-31T09:15:45.492Z,97975.97
2022-07-31T09:18:22.270Z,97969.56
2022-07-31T09:21:05.136Z,97981.44
2022-07-31T09:23:35.219Z,97977.38
2022-07-31T09:26:07.952Z,97982.59
2022-07-31T09:28:36.003Z,97981.44
2022-07-31T09:31:03.924Z,97986.97
2022-07-31T09:33:31.176Z,97993.66
2022-07-31T09:35:58.815Z,97984.84
2022-07-31T09:38:37.013Z,97986.69
2022-07-31T09:41:26.806Z,97991.38
2022-07-31T09:44:10.382Z,97982.06
2022-07-31T09:46:42.748Z,97994.75
2022-07-31T09:49:18.945Z,97984.28
2022-07-31T09:51:47.195Z,97987.59
2022-07-31T09:54:22.323Z,97993.31
2022-07-31T09:56:50.522Z,97986.47
2022-07-31T09:59:17.793Z,97992.50
2022-07-31T10:01:46.404Z,97986.47
2022-07-31T10:04:13.398Z,97997.19
2022-07-31T10:06:40.449Z,97996.41
2022-07-31T10:09:07.479Z,97993.66
2022-07-31T10:11:34.475Z,97995.59
2022-07-31T10:14:02.359Z,97996.72
2022-07-31T10:16:30.864Z,98003.06
2022-07-31T10:19:01.301Z,98005.00
2022-07-31T10:21:36.344Z,98003.06
2022-07-31T10:24:04.053Z,98005.25
2022-07-31T10:26:57.680Z,98008.25
2022-07-31T10:29:18.290Z,98007.47
2022-07-31T10:31:46.606Z,98006.84
2022-07-31T10:34:15.415Z,98010.72
2022-07-31T10:36:42.742Z,98012.66
2022-07-31T10:39:29.567Z,98014.59
2022-07-31T10:42:06.783Z,98012.66
2022-07-31T10:44:48.380Z,98018.50
2022-07-31T10:47:16.377Z,98023.50
2022-07-31T10:49:44.884Z,98017.97
2022-07-31T10:52:12.019Z,98016.03
2022-07-31T10:54:46.643Z,98018.81
2022-07-31T10:57:26.442Z,98021.56
2022-07-31T10:59:53.618Z,98025.72
2022-07-31T11:02:35.056Z,98026.28
2022-07-31T11:05:19.835Z,98024.03
2022-07-31T11:07:49.855Z,98031.50
2022-07-31T11:10:21.204Z,98033.44
2022-07-31T11:13:07.734Z,98035.09
2022-07-31T11:15:35.467Z,98026.53
2022-07-31T11:18:23.841Z,98029.03
2022-07-31T11:21:13.705Z,98032.88
2022-07-31T11:23:55.893Z,98034.81
2022-07-31T11:26:33.133Z,98034.63
2022-07-31T11:30:00.008Z,98033.50
2022-07-31T11:32:03.268Z,98028.25
2022-07-31T11:34:30.298Z,98039.53
2022-07-31T11:36:57.506Z,98034.56
2022-07-31T11:39:36.613Z,98032.06
2022-07-31T11:42:04.919Z,98029.03
2022-07-31T11:44:34.942Z,98034.00
2022-07-31T11:47:02.211Z,98031.56
2022-07-31T11:49:39.104Z,98034.63
2022-07-31T11:52:31.135Z,98038.72
2022-07-31T11:55:09.368Z,98036.88
2022-07-31T11:57:51.847Z,98037.09
2022-07-31T12:00:27.269Z,98027.44
2022-07-31T12:02:56.489Z,98033.78
2022-07-31T12:05:37.901Z,98037.66
2022-07-31T12:08:05.942Z,98033.56
2022-07-31T12:10:32.979Z,98041.25
2022-07-31T12:12:59.948Z,98046.28
2022-07-31T12:15:26.925Z,98044.00
2022-07-31T12:18:04.124Z,98042.41
2022-07-31T12:20:36.239Z,98053.94
2022-07-31T12:23:05.103Z,98050.69
2022-07-31T12:25:42.647Z,98050.97
2022-07-31T12:28:10.400Z,98060.91
2022-07-31T12:30:37.529Z,98057.63
2022-07-31T12:33:06.188Z,98061.72
2022-07-31T12:35:56.213Z,98056.28
2022-07-31T12:38:41.242Z,98071.13
2022-07-31T12:41:14.514Z,98060.16
2022-07-31T12:43:50.232Z,98065.41
2022-07-31T12:46:23.064Z,98066.19
2022-07-31T12:48:50.223Z,98062.84
2022-07-31T12:51:44.253Z,98065.63
2022-07-31T12:54:07.795Z,98059.56
2022-07-31T12:56:36.035Z,98063.44
2022-07-31T12:59:03.113Z,98070.59
2022-07-31T13:01:30.439Z,98060.16
2022-07-31T13:03:58.658Z,98075.63
2022-07-31T13:06:28.280Z,98070.38
2022-07-31T13:08:55.822Z,98065.69
2022-07-31T13:11:23.040Z,98067.63
2022-07-31T13:13:51.055Z,98069.56
2022-07-31T13:16:18.123Z,98080.63
2022-07-31T13:18:45.130Z,98067.91
2022-07-31T13:21:12.107Z,98079.78
2022-07-31T13:23:39.090Z,98077.56
2022-07-31T13:26:06.087Z,98070.09
2022-07-31T13:28:33.116Z,98060.47
2022-07-31T13:31:00.211Z,98068.75
2022-07-31T13:33:27.217Z,98068.25
2022-07-31T13:35:54.261Z,98064.13
2022-07-31T13:38:21.244Z,98074.59
2022-07-31T13:41:06.940Z,98064.38
2022-07-31T13:43:34.012Z,98065.25
2022-07-31T13:46:01.075Z,98075.69
2022-07-31T13:48:28.040Z,98075.41
2022-07-31T13:50:55.106Z,98072.13
2022-07-31T13:53:22.092Z,98072.66
2022-07-31T13:55:50.355Z,98080.31
2022-07-31T13:58:18.004Z,98074.28
2022-07-31T14:00:45.035Z,98068.47
2022-07-31T14:03:15.281Z,98077.34
2022-07-31T14:05:45.632Z,98077.34
2022-07-31T14:08:33.362Z,98078.47
2022-07-31T14:11:02.315Z,98069.34
2022-07-31T14:13:29.348Z,98068.81
2022-07-31T14:15:56.556Z,98073.22
2022-07-31T14:18:23.809Z,98072.41
2022-07-31T14:20:51.096Z,98079.06
2022-07-31T14:23:18.110Z,98082.34
2022-07-31T14:25:45.239Z,98082.63
2022-07-31T14:28:12.389Z,98093.38
2022-07-31T14:30:42.121Z,98088.69
2022-07-31T14:33:09.115Z,98090.91
2022-07-31T14:35:36.391Z,98095.53
2022-07-31T14:38:04.391Z,98093.91
2022-07-31T14:40:31.583Z,98096.16
2022-07-31T14:42:58.775Z,98092.06
2022-07-31T14:45:25.791Z,98088.97
2022-07-31T14:47:53.142Z,98095.13
2022-07-31T14:50:20.463Z,98103.09
2022-07-31T14:52:48.080Z,98102.88
2022-07-31T14:55:15.126Z,98105.88
2022-07-31T14:57:42.234Z,98109.75
2022-07-31T15:00:13.462Z,98110.34
2022-07-31T15:02:44.450Z,98120.50
2022-07-31T15:06:38.686Z,98114.97
2022-07-31T15:07:59.609Z,98116.09
2022-07-31T15:10:26.717Z,98117.41
2022-07-31T15:12:53.784Z,98114.16
2022-07-31T15:15:20.909Z,98122.13
2022-07-31T15:17:47.963Z,98122.72
2022-07-31T15:20:15.749Z,98118.31
2022-07-31T15:22:42.761Z,98122.72
2022-07-31T15:25:10.505Z,98126.59
2022-07-31T15:27:37.771Z,98121.69
2022-07-31T15:30:07.790Z,98120.88
2022-07-31T15:32:36.280Z,98122.81
2022-07-31T15:35:04.137Z,98133.56
2022-07-31T15:37:34.063Z,98130.47
2022-07-31T15:40:02.329Z,98127.22
2022-07-31T15:42:34.458Z,98128.25
2022-07-31T15:45:01.530Z,98126.59
2022-07-31T15:47:28.646Z,98122.19
2022-07-31T15:49:55.673Z,98124.94
2022-07-31T15:52:22.714Z,98126.59
2022-07-31T15:54:51.675Z,98133.25
2022-07-31T15:57:21.284Z,98135.50
2022-07-31T15:59:49.211Z,98125.34
2022-07-31T16:02:16.278Z,98121.97
2022-07-31T16:04:52.885Z,98122.28
2022-07-31T16:08:32.838Z,98124.75
2022-07-31T16:10:16.401Z,98135.50
2022-07-31T16:12:45.932Z,98130.25
2022-07-31T16:15:13.184Z,98128.31
2022-07-31T16:17:40.709Z,98131.63
2022-07-31T16:20:09.609Z,98128.31
2022-07-31T16:22:37.347Z,98121.69
2022-07-31T16:25:04.838Z,98121.16
2022-07-31T16:27:31.846Z,98117.88
2022-07-31T16:30:01.462Z,98121.47
2022-07-31T16:32:28.773Z,98120.66
2022-07-31T16:35:00.224Z,98125.06
2022-07-31T16:37:51.327Z,98123.91
2022-07-31T16:40:28.315Z,98118.72
2022-07-31T16:43:01.750Z,98117.56
2022-07-31T16:45:29.894Z,98114.00
2022-07-31T16:47:57.438Z,98112.88
2022-07-31T16:50:24.500Z,98111.75
2022-07-31T16:52:54.803Z,98119.22
2022-07-31T16:56:00.075Z,98114.22
2022-07-31T16:58:11.821Z,98110.44
2022-07-31T17:00:39.573Z,98108.16
2022-07-31T17:03:06.717Z,98112.38
2022-07-31T17:05:53.699Z,98119.53
2022-07-31T17:08:20.869Z,98115.94
2022-07-31T17:10:51.283Z,98112.66
2022-07-31T17:13:21.454Z,98115.41
2022-07-31T17:15:48.425Z,98115.69
2022-07-31T17:18:15.530Z,98119.28
2022-07-31T17:20:47.222Z,98117.34
2022-07-31T17:23:14.943Z,98127.00
2022-07-31T17:25:42.907Z,98124.81
2022-07-31T17:28:15.054Z,98136.09
2022-07-31T17:30:42.592Z,98135.28
2022-07-31T17:33:09.661Z,98133.84
2022-07-31T17:35:36.620Z,98128.09
2022-07-31T17:38:03.634Z,98133.03
2022-07-31T17:40:42.988Z,98141.31
2022-07-31T17:43:11.012Z,98130.03
2022-07-31T17:45:59.798Z,98138.88
2022-07-31T17:48:27.838Z,98132.81
2022-07-31T17:50:54.871Z,98137.78
2022-07-31T17:53:21.873Z,98139.44
2022-07-31T17:55:51.789Z,98135.56
2022-07-31T17:58:20.375Z,98132.28
2022-07-31T18:00:47.432Z,98132.28
2022-07-31T18:03:14.552Z,98131.97
2022-07-31T18:05:41.630Z,98128.09
2022-07-31T18:08:08.670Z,98128.94
2022-07-31T18:10:53.574Z,98136.69
2022-07-31T18:13:21.603Z,98139.16
2022-07-31T18:15:48.617Z,98143.03
2022-07-31T18:18:15.630Z,98140.56
2022-07-31T18:20:45.404Z,98152.13
2022-07-31T18:23:12.585Z,98144.47
2022-07-31T18:25:41.527Z,98147.44
2022-07-31T18:28:09.241Z,98151.03
2022-07-31T18:30:38.980Z,98165.94
2022-07-31T18:33:06.326Z,98174.22
2022-07-31T18:35:33.562Z,98162.13
2022-07-31T18:38:00.586Z,98171.47
2022-07-31T18:40:27.572Z,98168.72
2022-07-31T18:42:54.574Z,98172.56
2022-07-31T18:45:23.765Z,98170.13
2022-07-31T18:47:52.206Z,98167.06
2022-07-31T18:51:02.914Z,98166.84
2022-07-31T18:53:06.284Z,98173.19
2022-07-31T18:55:33.304Z,98169.88
2022-07-31T18:58:00.558Z,98178.69
2022-07-31T19:00:28.706Z,98167.94
2022-07-31T19:02:55.952Z,98182.56
2022-07-31T19:05:22.990Z,98182.06
2022-07-31T19:07:50.349Z,98177.34
2022-07-31T19:10:29.758Z,98167.72
2022-07-31T19:12:59.225Z,98180.09
2022-07-31T19:15:26.245Z,98183.69
2022-07-31T19:17:54.825Z,98179.31
2022-07-31T19:20:53.013Z,98190.84
2022-07-31T19:23:14.632Z,98188.09
2022-07-31T19:25:53.957Z,98186.44
2022-07-31T19:28:30.745Z,98187.06
2022-07-31T19:30:57.850Z,98195.88
2022-07-31T19:33:25.164Z,98202.19
2022-07-31T19:35:58.339Z,98194.22
2022-07-31T19:38:25.872Z,98197.56
2022-07-31T19:40:53.138Z,98194.22
2022-07-31T19:43:20.485Z,98203.34
2022-07-31T19:46:10.094Z,98202.78
2022-07-31T19:48:36.781Z,98202.78
2022-07-31T19:51:04.402Z,98198.09
2022-07-31T19:53:31.541Z,98197.88
2022-07-31T19:56:00.597Z,98198.63
2022-07-31T19:58:27.665Z,98204.44
2022-07-31T20:00:56.047Z,98206.91
2022-07-31T20:03:23.126Z,98204.44
2022-07-31T20:05:50.212Z,98202.78
2022-07-31T20:08:17.261Z,98198.69
2022-07-31T20:10:44.288Z,98202.28
2022-07-31T20:13:13.042Z,98203.06
2022-07-31T20:15:52.429Z,98197.28
2022-07-31T20:18:28.528Z,98203.63
2022-07-31T20:21:00.600Z,98203.06
2022-07-31T20:23:27.839Z,98195.94
2022-07-31T20:25:54.901Z,98204.22
2022-07-31T20:28:22.020Z,98199.53
2022-07-31T20:30:49.345Z,98195.41
2022-07-31T20:33:16.374Z,98204.22
2022-07-31T20:35:48.784Z,98197.03
2022-07-31T20:38:20.408Z,98205.03
2022-07-31T20:40:53.502Z,98204.22
2022-07-31T20:43:26.642Z,98205.56
2022-07-31T20:45:54.695Z,98197.03
2022-07-31T20:48:24.536Z,98199.81
2022-07-31T20:50:52.030Z,98206.44
2022-07-31T20:53:19.682Z,98206.44
2022-07-31T20:55:47.571Z,98194.28
2022-07-31T20:58:14.646Z,98200.91
2022-07-31T21:00:42.056Z,98204.78
2022-07-31T21:03:09.294Z,98201.19
2022-07-31T21:05:36.288Z,98190.97
2022-07-31T21:08:03.396Z,98199.88
2022-07-31T21:10:30.353Z,98198.44
2022-07-31T21:12:57.616Z,98199.28
2022-07-31T21:15:44.227Z,98197.34
2022-07-31T21:18:12.613Z,98198.75
2022-07-31T21:20:51.946Z,98189.38
2022-07-31T21:23:26.265Z,98196.81
2022-07-31T21:25:54.682Z,98186.06
2022-07-31T21:28:22.357Z,98187.72
2022-07-31T21:30:49.850Z,98196.88
2022-07-31T21:33:18.438Z,98197.41
2022-07-31T21:35:46.560Z,98205.69
2022-07-31T21:38:17.043Z,98202.09
2022-07-31T21:40:44.403Z,98203.44
2022-07-31T21:43:12.465Z,98200.47
2022-07-31T21:45:55.440Z,98204.34
2022-07-31T21:48:27.679Z,98204.06
2022-07-31T21:50:55.092Z,98198.81
2022-07-31T21:53:22.478Z,98202.41
2022-07-31T21:55:49.532Z,98204.56
2022-07-31T21:58:16.716Z,98210.09
2022-07-31T22:00:44.140Z,98212.03
2022-07-31T22:03:11.242Z,98205.38
2022-07-31T22:05:57.062Z,98204.34
2022-07-31T22:08:24.220Z,98198.28
2022-07-31T22:10:51.737Z,98209.84
2022-07-31T22:13:19.854Z,98209.84
2022-07-31T22:15:51.459Z,98214.28
2022-07-31T22:18:34.813Z,98215.38
2022-07-31T22:21:04.111Z,98213.22
2022-07-31T22:23:31.239Z,98213.22
2022-07-31T22:25:58.516Z,98215.97
2022-07-31T22:28:27.085Z,98210.97
2022-07-31T22:30:54.819Z,98204.94
2022-07-31T22:33:21.929Z,98206.56
2022-07-31T22:35:59.927Z,98214.84
2022-07-31T22:38:28.097Z,98206.34
2022-07-31T22:40:55.517Z,98213.78
2022-07-31T22:44:10.587Z,98215.97
2022-07-31T22:46:10.252Z,98219.84
2022-07-31T22:48:38.925Z,98218.19
2022-07-31T22:51:06.161Z,98213.78
2022-07-31T22:53:33.266Z,98215.44
2022-07-31T22:56:00.308Z,98211.03
2022-07-31T22:58:27.288Z,98211.84
2022-07-31T23:00:54.501Z,98207.16
2022-07-31T23:03:21.525Z,98215.44
2022-07-31T23:06:13.041Z,98205.81
2022-07-31T23:08:35.643Z,98216.53
2022-07-31T23:11:02.617Z,98211.03
2022-07-31T23:13:29.630Z,98214.38
2022-07-31T23:15:56.715Z,98214.09
2022-07-31T23:18:23.830Z,98208.31
2022-07-31T23:20:50.870Z,98213.56
2022-07-31T23:23:17.847Z,98213.34
2022-07-31T23:25:44.854Z,98215.50
2022-07-31T23:28:11.832Z,98214.44
2022-07-31T23:30:38.937Z,98224.88
2022-07-31T23:33:05.907Z,98225.47
2022-07-31T23:35:33.005Z,98220.78
2022-07-31T23:38:00.122Z,98230.72
2022-07-31T23:40:27.177Z,98225.47
2022-07-31T23:42:54.468Z,98232.38
2022-07-31T23:45:21.500Z,98242.28
2022-07-31T23:47:48.596Z,98236.25
2022-07-31T23:50:16.294Z,98239.00
2022-07-31T23:52:43.725Z,98240.38
2022-07-31T23:55:10.824Z,98244.53
2022-07-31T23:57:38.243Z,98226.09
